sensor_id;sensor_type;location;lat;lon;timestamp;P1;durP1;ratioP1;P2;durP2;ratioP2
11807;SDS011;5961;42.640;23.380;2022-11-15T00:01:07;21.87;;;14.53;;
11807;SDS011;5961;42.640;23.380;2022-11-15T00:03:34;22.83;;;15.07;;
11807;SDS011;5961;42.640;23.380;2022-11-15T00:06:02;21.80;;;14.43;;
11807;SDS011;5961;42.640;23.380;2022-11-15T00:08:30;21.47;;;14.50;;
11807;SDS011;5961;42.640;23.380;2022-11-15T00:10:57;20.07;;;13.30;;
11807;SDS011;5961;42.640;23.380;2022-11-15T00:13:24;20.17;;;13.10;;
11807;SDS011;5961;42.640;23.380;2022-11-15T00:15:51;19.70;;;13.80;;
11807;SDS011;5961;42.640;23.380;2022-11-15T00:18:19;19.73;;;12.37;;
11807;SDS011;5961;42.640;23.380;2022-11-15T00:20:46;19.13;;;12.70;;
11807;SDS011;5961;42.640;23.380;2022-11-15T00:23:13;19.30;;;13.43;;
11807;SDS011;5961;42.640;23.380;2022-11-15T00:25:39;21.77;;;14.27;;
11807;SDS011;5961;42.640;23.380;2022-11-15T00:28:06;27.27;;;17.17;;
11807;SDS011;5961;42.640;23.380;2022-11-15T00:30:33;34.33;;;20.23;;
11807;SDS011;5961;42.640;23.380;2022-11-15T00:33:01;46.03;;;26.00;;
11807;SDS011;5961;42.640;23.380;2022-11-15T00:35:30;48.27;;;29.03;;
11807;SDS011;5961;42.640;23.380;2022-11-15T00:37:57;59.70;;;32.93;;
11807;SDS011;5961;42.640;23.380;2022-11-15T00:40:24;63.40;;;33.77;;
11807;SDS011;5961;42.640;23.380;2022-11-15T00:42:51;58.37;;;32.97;;
11807;SDS011;5961;42.640;23.380;2022-11-15T00:45:17;61.40;;;32.70;;
11807;SDS011;5961;42.640;23.380;2022-11-15T00:47:44;59.40;;;33.07;;
11807;SDS011;5961;42.640;23.380;2022-11-15T00:50:11;60.57;;;35.87;;
11807;SDS011;5961;42.640;23.380;2022-11-15T00:52:39;61.17;;;36.10;;
11807;SDS011;5961;42.640;23.380;2022-11-15T00:55:06;61.57;;;35.70;;
11807;SDS011;5961;42.640;23.380;2022-11-15T00:57:34;49.03;;;28.93;;
11807;SDS011;5961;42.640;23.380;2022-11-15T01:00:00;32.27;;;20.73;;
11807;SDS011;5961;42.640;23.380;2022-11-15T01:02:27;22.67;;;15.00;;
11807;SDS011;5961;42.640;23.380;2022-11-15T01:04:54;21.63;;;13.70;;
11807;SDS011;5961;42.640;23.380;2022-11-15T01:07:20;22.83;;;14.10;;
11807;SDS011;5961;42.640;23.380;2022-11-15T01:09:49;25.07;;;15.13;;
11807;SDS011;5961;42.640;23.380;2022-11-15T01:12:15;28.17;;;16.80;;
11807;SDS011;5961;42.640;23.380;2022-11-15T01:14:42;36.27;;;22.73;;
11807;SDS011;5961;42.640;23.380;2022-11-15T01:17:09;45.03;;;26.50;;
11807;SDS011;5961;42.640;23.380;2022-11-15T01:19:35;50.67;;;30.10;;
11807;SDS011;5961;42.640;23.380;2022-11-15T01:22:02;50.83;;;31.37;;
11807;SDS011;5961;42.640;23.380;2022-11-15T01:24:29;57.67;;;31.17;;
11807;SDS011;5961;42.640;23.380;2022-11-15T01:26:57;53.77;;;33.30;;
11807;SDS011;5961;42.640;23.380;2022-11-15T01:29:23;54.43;;;32.80;;
11807;SDS011;5961;42.640;23.380;2022-11-15T01:31:52;73.87;;;38.33;;
11807;SDS011;5961;42.640;23.380;2022-11-15T01:34:19;72.07;;;39.50;;
11807;SDS011;5961;42.640;23.380;2022-11-15T01:36:45;66.63;;;38.37;;
11807;SDS011;5961;42.640;23.380;2022-11-15T01:39:12;61.53;;;36.37;;
11807;SDS011;5961;42.640;23.380;2022-11-15T01:41:39;63.13;;;36.70;;
11807;SDS011;5961;42.640;23.380;2022-11-15T01:47:11;61.50;;;32.33;;
11807;SDS011;5961;42.640;23.380;2022-11-15T01:49:43;52.93;;;31.10;;
11807;SDS011;5961;42.640;23.380;2022-11-15T01:52:17;49.53;;;30.33;;
11807;SDS011;5961;42.640;23.380;2022-11-15T01:54:47;56.03;;;31.83;;
11807;SDS011;5961;42.640;23.380;2022-11-15T01:57:14;60.90;;;36.03;;
11807;SDS011;5961;42.640;23.380;2022-11-15T01:59:43;48.77;;;28.67;;
11807;SDS011;5961;42.640;23.380;2022-11-15T02:02:11;35.07;;;20.87;;
11807;SDS011;5961;42.640;23.380;2022-11-15T02:04:39;31.23;;;19.67;;
11807;SDS011;5961;42.640;23.380;2022-11-15T02:07:08;27.57;;;16.20;;
11807;SDS011;5961;42.640;23.380;2022-11-15T02:09:37;25.20;;;15.83;;
11807;SDS011;5961;42.640;23.380;2022-11-15T02:12:05;22.37;;;15.90;;
11807;SDS011;5961;42.640;23.380;2022-11-15T02:14:33;22.70;;;15.13;;
11807;SDS011;5961;42.640;23.380;2022-11-15T02:17:06;25.67;;;13.60;;
11807;SDS011;5961;42.640;23.380;2022-11-15T02:19:50;20.73;;;13.83;;
11807;SDS011;5961;42.640;23.380;2022-11-15T02:22:36;25.83;;;13.33;;
11807;SDS011;5961;42.640;23.380;2022-11-15T02:25:18;24.43;;;14.37;;
11807;SDS011;5961;42.640;23.380;2022-11-15T02:30:56;22.73;;;14.17;;
11807;SDS011;5961;42.640;23.380;2022-11-15T02:33:32;24.30;;;14.43;;
11807;SDS011;5961;42.640;23.380;2022-11-15T02:36:05;31.07;;;15.17;;
11807;SDS011;5961;42.640;23.380;2022-11-15T02:38:38;24.83;;;15.97;;
11807;SDS011;5961;42.640;23.380;2022-11-15T02:41:10;24.87;;;15.97;;
11807;SDS011;5961;42.640;23.380;2022-11-15T02:43:40;24.20;;;15.67;;
11807;SDS011;5961;42.640;23.380;2022-11-15T02:46:23;21.37;;;13.87;;
11807;SDS011;5961;42.640;23.380;2022-11-15T02:49:10;24.67;;;14.27;;
11807;SDS011;5961;42.640;23.380;2022-11-15T02:51:38;23.93;;;14.23;;
11807;SDS011;5961;42.640;23.380;2022-11-15T02:54:06;19.63;;;13.03;;
11807;SDS011;5961;42.640;23.380;2022-11-15T02:56:33;22.63;;;12.73;;
11807;SDS011;5961;42.640;23.380;2022-11-15T03:02:04;19.10;;;12.37;;
11807;SDS011;5961;42.640;23.380;2022-11-15T03:04:44;17.13;;;12.00;;
11807;SDS011;5961;42.640;23.380;2022-11-15T03:07:18;17.07;;;11.60;;
11807;SDS011;5961;42.640;23.380;2022-11-15T03:09:51;17.67;;;12.40;;
11807;SDS011;5961;42.640;23.380;2022-11-15T03:12:23;18.30;;;11.80;;
11807;SDS011;5961;42.640;23.380;2022-11-15T03:14:54;18.00;;;11.67;;
11807;SDS011;5961;42.640;23.380;2022-11-15T03:17:28;19.30;;;12.73;;
11807;SDS011;5961;42.640;23.380;2022-11-15T03:19:57;18.17;;;11.83;;
11807;SDS011;5961;42.640;23.380;2022-11-15T03:22:26;17.43;;;11.97;;
11807;SDS011;5961;42.640;23.380;2022-11-15T03:24:56;21.63;;;13.10;;
11807;SDS011;5961;42.640;23.380;2022-11-15T03:27:25;18.87;;;12.70;;
11807;SDS011;5961;42.640;23.380;2022-11-15T03:29:58;18.97;;;12.50;;
11807;SDS011;5961;42.640;23.380;2022-11-15T03:32:30;26.07;;;14.60;;
11807;SDS011;5961;42.640;23.380;2022-11-15T03:34:58;25.03;;;15.27;;
11807;SDS011;5961;42.640;23.380;2022-11-15T03:37:29;24.10;;;13.40;;
11807;SDS011;5961;42.640;23.380;2022-11-15T03:40:01;19.53;;;12.90;;
11807;SDS011;5961;42.640;23.380;2022-11-15T03:42:30;21.23;;;12.67;;
11807;SDS011;5961;42.640;23.380;2022-11-15T03:45:01;20.00;;;12.20;;
11807;SDS011;5961;42.640;23.380;2022-11-15T03:47:36;18.80;;;11.87;;
11807;SDS011;5961;42.640;23.380;2022-11-15T03:50:07;18.73;;;11.93;;
11807;SDS011;5961;42.640;23.380;2022-11-15T03:52:36;16.17;;;11.37;;
11807;SDS011;5961;42.640;23.380;2022-11-15T03:55:04;18.57;;;12.13;;
11807;SDS011;5961;42.640;23.380;2022-11-15T03:57:32;18.70;;;12.83;;
11807;SDS011;5961;42.640;23.380;2022-11-15T03:59:59;19.00;;;13.07;;
11807;SDS011;5961;42.640;23.380;2022-11-15T04:02:25;25.90;;;17.10;;
11807;SDS011;5961;42.640;23.380;2022-11-15T04:04:54;30.83;;;21.23;;
11807;SDS011;5961;42.640;23.380;2022-11-15T04:07:21;33.83;;;22.33;;
11807;SDS011;5961;42.640;23.380;2022-11-15T04:09:48;36.73;;;24.90;;
11807;SDS011;5961;42.640;23.380;2022-11-15T04:12:30;41.77;;;27.77;;
11807;SDS011;5961;42.640;23.380;2022-11-15T04:14:59;59.00;;;30.77;;
11807;SDS011;5961;42.640;23.380;2022-11-15T04:17:38;76.43;;;32.70;;
11807;SDS011;5961;42.640;23.380;2022-11-15T04:20:08;51.83;;;31.33;;
11807;SDS011;5961;42.640;23.380;2022-11-15T04:22:55;47.17;;;29.30;;
11807;SDS011;5961;42.640;23.380;2022-11-15T04:25:40;51.00;;;29.43;;
11807;SDS011;5961;42.640;23.380;2022-11-15T04:28:07;52.73;;;28.23;;
11807;SDS011;5961;42.640;23.380;2022-11-15T04:30:34;47.90;;;28.37;;
11807;SDS011;5961;42.640;23.380;2022-11-15T04:33:01;109.73;;;38.97;;
11807;SDS011;5961;42.640;23.380;2022-11-15T04:35:29;92.63;;;33.87;;
11807;SDS011;5961;42.640;23.380;2022-11-15T04:37:56;173.50;;;32.33;;
11807;SDS011;5961;42.640;23.380;2022-11-15T04:40:22;204.20;;;30.33;;
11807;SDS011;5961;42.640;23.380;2022-11-15T04:42:49;136.57;;;29.83;;
11807;SDS011;5961;42.640;23.380;2022-11-15T04:45:16;74.37;;;28.17;;
11807;SDS011;5961;42.640;23.380;2022-11-15T04:47:43;121.10;;;28.97;;
11807;SDS011;5961;42.640;23.380;2022-11-15T04:50:10;285.13;;;38.90;;
11807;SDS011;5961;42.640;23.380;2022-11-15T04:52:39;80.50;;;28.33;;
11807;SDS011;5961;42.640;23.380;2022-11-15T04:55:07;50.00;;;26.07;;
11807;SDS011;5961;42.640;23.380;2022-11-15T04:57:34;104.23;;;26.67;;
11807;SDS011;5961;42.640;23.380;2022-11-15T05:00:01;163.97;;;29.37;;
11807;SDS011;5961;42.640;23.380;2022-11-15T05:02:28;114.97;;;27.87;;
11807;SDS011;5961;42.640;23.380;2022-11-15T05:05:15;72.03;;;27.10;;
11807;SDS011;5961;42.640;23.380;2022-11-15T05:07:42;71.93;;;28.30;;
11807;SDS011;5961;42.640;23.380;2022-11-15T05:10:09;60.83;;;25.70;;
11807;SDS011;5961;42.640;23.380;2022-11-15T05:12:35;205.80;;;33.60;;
11807;SDS011;5961;42.640;23.380;2022-11-15T05:15:02;51.73;;;26.60;;
11807;SDS011;5961;42.640;23.380;2022-11-15T05:17:30;48.67;;;26.63;;
11807;SDS011;5961;42.640;23.380;2022-11-15T05:19:57;52.60;;;27.80;;
11807;SDS011;5961;42.640;23.380;2022-11-15T05:22:23;51.93;;;27.10;;
11807;SDS011;5961;42.640;23.380;2022-11-15T05:24:51;62.47;;;28.63;;
11807;SDS011;5961;42.640;23.380;2022-11-15T05:27:18;66.00;;;26.07;;
11807;SDS011;5961;42.640;23.380;2022-11-15T05:29:45;50.57;;;25.33;;
11807;SDS011;5961;42.640;23.380;2022-11-15T05:32:12;100.70;;;27.00;;
11807;SDS011;5961;42.640;23.380;2022-11-15T05:34:39;50.40;;;26.57;;
11807;SDS011;5961;42.640;23.380;2022-11-15T05:37:05;51.83;;;25.97;;
11807;SDS011;5961;42.640;23.380;2022-11-15T05:39:33;56.77;;;26.53;;
11807;SDS011;5961;42.640;23.380;2022-11-15T05:42:01;163.97;;;29.17;;
11807;SDS011;5961;42.640;23.380;2022-11-15T05:44:33;119.37;;;26.40;;
11807;SDS011;5961;42.640;23.380;2022-11-15T05:47:02;89.17;;;26.67;;
11807;SDS011;5961;42.640;23.380;2022-11-15T05:49:31;83.13;;;25.37;;
11807;SDS011;5961;42.640;23.380;2022-11-15T05:52:03;48.93;;;24.23;;
11807;SDS011;5961;42.640;23.380;2022-11-15T05:54:33;43.33;;;21.40;;
11807;SDS011;5961;42.640;23.380;2022-11-15T05:57:03;33.10;;;18.73;;
11807;SDS011;5961;42.640;23.380;2022-11-15T05:59:30;32.47;;;17.60;;
11807;SDS011;5961;42.640;23.380;2022-11-15T06:01:58;31.60;;;17.00;;
11807;SDS011;5961;42.640;23.380;2022-11-15T06:04:24;40.60;;;19.03;;
11807;SDS011;5961;42.640;23.380;2022-11-15T06:06:51;33.53;;;19.47;;
11807;SDS011;5961;42.640;23.380;2022-11-15T06:09:18;33.50;;;19.00;;
11807;SDS011;5961;42.640;23.380;2022-11-15T06:11:45;37.63;;;19.80;;
11807;SDS011;5961;42.640;23.380;2022-11-15T06:14:13;38.10;;;19.87;;
11807;SDS011;5961;42.640;23.380;2022-11-15T06:16:39;40.63;;;19.43;;
11807;SDS011;5961;42.640;23.380;2022-11-15T06:19:06;40.90;;;20.67;;
11807;SDS011;5961;42.640;23.380;2022-11-15T06:21:33;46.70;;;21.93;;
11807;SDS011;5961;42.640;23.380;2022-11-15T06:24:00;41.77;;;22.10;;
11807;SDS011;5961;42.640;23.380;2022-11-15T06:26:27;39.77;;;20.80;;
11807;SDS011;5961;42.640;23.380;2022-11-15T06:28:53;38.53;;;20.07;;
11807;SDS011;5961;42.640;23.380;2022-11-15T06:31:22;38.50;;;21.33;;
11807;SDS011;5961;42.640;23.380;2022-11-15T06:33:48;51.57;;;23.83;;
11807;SDS011;5961;42.640;23.380;2022-11-15T06:36:15;74.00;;;24.37;;
11807;SDS011;5961;42.640;23.380;2022-11-15T06:38:43;66.80;;;24.17;;
11807;SDS011;5961;42.640;23.380;2022-11-15T06:41:10;132.47;;;29.40;;
11807;SDS011;5961;42.640;23.380;2022-11-15T06:43:38;59.00;;;26.20;;
11807;SDS011;5961;42.640;23.380;2022-11-15T06:46:06;58.40;;;26.63;;
11807;SDS011;5961;42.640;23.380;2022-11-15T06:48:35;99.50;;;28.93;;
11807;SDS011;5961;42.640;23.380;2022-11-15T06:51:02;125.93;;;28.90;;
11807;SDS011;5961;42.640;23.380;2022-11-15T06:53:30;62.50;;;26.70;;
11807;SDS011;5961;42.640;23.380;2022-11-15T06:55:58;62.37;;;28.60;;
11807;SDS011;5961;42.640;23.380;2022-11-15T06:58:26;61.07;;;26.83;;
11807;SDS011;5961;42.640;23.380;2022-11-15T07:00:53;76.53;;;28.80;;
11807;SDS011;5961;42.640;23.380;2022-11-15T07:03:20;57.83;;;27.90;;
11807;SDS011;5961;42.640;23.380;2022-11-15T07:05:52;63.10;;;28.47;;
11807;SDS011;5961;42.640;23.380;2022-11-15T07:08:19;84.63;;;28.50;;
11807;SDS011;5961;42.640;23.380;2022-11-15T07:10:46;59.93;;;27.27;;
11807;SDS011;5961;42.640;23.380;2022-11-15T07:13:13;61.97;;;29.37;;
11807;SDS011;5961;42.640;23.380;2022-11-15T07:15:39;56.40;;;28.27;;
11807;SDS011;5961;42.640;23.380;2022-11-15T07:18:06;58.53;;;29.40;;
11807;SDS011;5961;42.640;23.380;2022-11-15T07:20:33;52.27;;;26.43;;
11807;SDS011;5961;42.640;23.380;2022-11-15T07:23:01;37.40;;;20.00;;
11807;SDS011;5961;42.640;23.380;2022-11-15T07:25:29;32.63;;;19.20;;
11807;SDS011;5961;42.640;23.380;2022-11-15T07:27:56;32.17;;;17.83;;
11807;SDS011;5961;42.640;23.380;2022-11-15T07:30:23;31.97;;;17.67;;
11807;SDS011;5961;42.640;23.380;2022-11-15T07:32:52;37.73;;;19.87;;
11807;SDS011;5961;42.640;23.380;2022-11-15T07:35:19;35.77;;;19.70;;
11807;SDS011;5961;42.640;23.380;2022-11-15T07:37:52;36.93;;;21.10;;
11807;SDS011;5961;42.640;23.380;2022-11-15T07:40:21;34.60;;;18.83;;
11807;SDS011;5961;42.640;23.380;2022-11-15T07:42:48;63.03;;;20.87;;
11807;SDS011;5961;42.640;23.380;2022-11-15T07:45:22;44.30;;;21.67;;
11807;SDS011;5961;42.640;23.380;2022-11-15T07:47:51;43.07;;;23.13;;
11807;SDS011;5961;42.640;23.380;2022-11-15T07:50:18;44.40;;;23.60;;
11807;SDS011;5961;42.640;23.380;2022-11-15T07:52:45;42.73;;;23.63;;
11807;SDS011;5961;42.640;23.380;2022-11-15T07:55:12;43.83;;;23.50;;
11807;SDS011;5961;42.640;23.380;2022-11-15T07:57:41;45.00;;;23.67;;
11807;SDS011;5961;42.640;23.380;2022-11-15T08:00:08;51.13;;;26.20;;
11807;SDS011;5961;42.640;23.380;2022-11-15T08:02:35;52.23;;;25.23;;
11807;SDS011;5961;42.640;23.380;2022-11-15T08:05:02;50.63;;;27.20;;
11807;SDS011;5961;42.640;23.380;2022-11-15T08:07:29;71.20;;;34.33;;
11807;SDS011;5961;42.640;23.380;2022-11-15T08:09:57;77.43;;;38.40;;
11807;SDS011;5961;42.640;23.380;2022-11-15T08:12:23;82.20;;;40.50;;
11807;SDS011;5961;42.640;23.380;2022-11-15T08:14:51;88.33;;;40.63;;
11807;SDS011;5961;42.640;23.380;2022-11-15T08:17:18;86.83;;;40.37;;
11807;SDS011;5961;42.640;23.380;2022-11-15T08:19:45;85.67;;;39.57;;
11807;SDS011;5961;42.640;23.380;2022-11-15T08:22:11;81.57;;;38.13;;
11807;SDS011;5961;42.640;23.380;2022-11-15T08:24:38;70.13;;;35.80;;
11807;SDS011;5961;42.640;23.380;2022-11-15T08:27:05;70.07;;;36.00;;
11807;SDS011;5961;42.640;23.380;2022-11-15T08:29:40;70.10;;;35.53;;
11807;SDS011;5961;42.640;23.380;2022-11-15T08:32:09;71.83;;;36.20;;
11807;SDS011;5961;42.640;23.380;2022-11-15T08:34:36;82.17;;;38.63;;
11807;SDS011;5961;42.640;23.380;2022-11-15T08:37:03;71.43;;;34.77;;
11807;SDS011;5961;42.640;23.380;2022-11-15T08:39:30;71.43;;;36.30;;
11807;SDS011;5961;42.640;23.380;2022-11-15T08:41:57;75.53;;;34.80;;
11807;SDS011;5961;42.640;23.380;2022-11-15T08:44:24;73.10;;;36.63;;
11807;SDS011;5961;42.640;23.380;2022-11-15T08:46:50;70.13;;;36.40;;
11807;SDS011;5961;42.640;23.380;2022-11-15T08:49:18;75.77;;;36.73;;
11807;SDS011;5961;42.640;23.380;2022-11-15T08:51:45;73.63;;;36.37;;
11807;SDS011;5961;42.640;23.380;2022-11-15T08:54:12;71.70;;;36.80;;
11807;SDS011;5961;42.640;23.380;2022-11-15T08:56:39;70.30;;;35.77;;
11807;SDS011;5961;42.640;23.380;2022-11-15T08:59:06;72.33;;;36.93;;
11807;SDS011;5961;42.640;23.380;2022-11-15T09:01:33;71.00;;;36.90;;
11807;SDS011;5961;42.640;23.380;2022-11-15T09:04:00;76.13;;;37.20;;
11807;SDS011;5961;42.640;23.380;2022-11-15T09:06:28;68.00;;;36.80;;
11807;SDS011;5961;42.640;23.380;2022-11-15T09:08:55;72.27;;;36.53;;
11807;SDS011;5961;42.640;23.380;2022-11-15T09:11:22;71.93;;;37.80;;
11807;SDS011;5961;42.640;23.380;2022-11-15T09:13:49;69.23;;;35.87;;
11807;SDS011;5961;42.640;23.380;2022-11-15T09:16:16;68.20;;;36.37;;
11807;SDS011;5961;42.640;23.380;2022-11-15T09:18:43;69.83;;;37.77;;
11807;SDS011;5961;42.640;23.380;2022-11-15T09:21:10;77.63;;;36.70;;
11807;SDS011;5961;42.640;23.380;2022-11-15T09:23:38;71.03;;;38.23;;
11807;SDS011;5961;42.640;23.380;2022-11-15T09:26:05;73.80;;;39.40;;
11807;SDS011;5961;42.640;23.380;2022-11-15T09:28:32;71.37;;;38.47;;
11807;SDS011;5961;42.640;23.380;2022-11-15T09:31:00;72.83;;;38.30;;
11807;SDS011;5961;42.640;23.380;2022-11-15T09:33:28;68.67;;;37.40;;
11807;SDS011;5961;42.640;23.380;2022-11-15T09:35:58;74.77;;;39.17;;
11807;SDS011;5961;42.640;23.380;2022-11-15T09:38:26;75.63;;;38.17;;
11807;SDS011;5961;42.640;23.380;2022-11-15T09:40:57;76.83;;;38.57;;
11807;SDS011;5961;42.640;23.380;2022-11-15T09:43:40;70.40;;;37.73;;
11807;SDS011;5961;42.640;23.380;2022-11-15T09:46:15;69.20;;;37.93;;
11807;SDS011;5961;42.640;23.380;2022-11-15T09:48:51;69.60;;;38.20;;
11807;SDS011;5961;42.640;23.380;2022-11-15T09:51:24;74.20;;;38.10;;
11807;SDS011;5961;42.640;23.380;2022-11-15T09:53:56;69.13;;;37.17;;
11807;SDS011;5961;42.640;23.380;2022-11-15T09:56:29;73.03;;;38.20;;
11807;SDS011;5961;42.640;23.380;2022-11-15T09:59:00;71.03;;;38.63;;
11807;SDS011;5961;42.640;23.380;2022-11-15T10:01:40;71.67;;;37.77;;
11807;SDS011;5961;42.640;23.380;2022-11-15T10:04:11;68.50;;;39.03;;
11807;SDS011;5961;42.640;23.380;2022-11-15T10:06:39;69.90;;;39.20;;
11807;SDS011;5961;42.640;23.380;2022-11-15T10:09:12;72.37;;;37.63;;
11807;SDS011;5961;42.640;23.380;2022-11-15T10:11:43;69.87;;;39.10;;
11807;SDS011;5961;42.640;23.380;2022-11-15T10:14:10;73.60;;;38.00;;
11807;SDS011;5961;42.640;23.380;2022-11-15T10:16:53;64.73;;;36.40;;
11807;SDS011;5961;42.640;23.380;2022-11-15T10:19:38;64.97;;;37.37;;
11807;SDS011;5961;42.640;23.380;2022-11-15T10:22:20;70.03;;;38.47;;
11807;SDS011;5961;42.640;23.380;2022-11-15T10:24:52;66.83;;;36.47;;
11807;SDS011;5961;42.640;23.380;2022-11-15T10:27:31;73.30;;;38.83;;
11807;SDS011;5961;42.640;23.380;2022-11-15T10:29:58;61.13;;;35.87;;
11807;SDS011;5961;42.640;23.380;2022-11-15T10:32:25;62.17;;;35.17;;
11807;SDS011;5961;42.640;23.380;2022-11-15T10:34:52;61.53;;;36.07;;
11807;SDS011;5961;42.640;23.380;2022-11-15T10:37:26;60.93;;;35.10;;
11807;SDS011;5961;42.640;23.380;2022-11-15T10:40:04;59.70;;;33.77;;
11807;SDS011;5961;42.640;23.380;2022-11-15T10:42:34;56.53;;;33.87;;
11807;SDS011;5961;42.640;23.380;2022-11-15T10:45:01;56.97;;;33.43;;
11807;SDS011;5961;42.640;23.380;2022-11-15T10:47:28;54.87;;;31.40;;
11807;SDS011;5961;42.640;23.380;2022-11-15T10:49:57;58.23;;;32.43;;
11807;SDS011;5961;42.640;23.380;2022-11-15T10:52:26;58.67;;;32.80;;
11807;SDS011;5961;42.640;23.380;2022-11-15T10:54:54;57.60;;;32.80;;
11807;SDS011;5961;42.640;23.380;2022-11-15T10:57:23;57.07;;;32.03;;
11807;SDS011;5961;42.640;23.380;2022-11-15T10:59:54;56.57;;;31.27;;
11807;SDS011;5961;42.640;23.380;2022-11-15T11:02:26;60.47;;;32.30;;
11807;SDS011;5961;42.640;23.380;2022-11-15T11:04:57;59.27;;;32.67;;
11807;SDS011;5961;42.640;23.380;2022-11-15T11:07:25;56.73;;;31.77;;
11807;SDS011;5961;42.640;23.380;2022-11-15T11:09:57;58.20;;;33.43;;
11807;SDS011;5961;42.640;23.380;2022-11-15T11:12:27;58.53;;;33.33;;
11807;SDS011;5961;42.640;23.380;2022-11-15T11:14:56;64.77;;;32.67;;
11807;SDS011;5961;42.640;23.380;2022-11-15T11:17:27;63.10;;;33.63;;
11807;SDS011;5961;42.640;23.380;2022-11-15T11:20:03;61.50;;;34.73;;
11807;SDS011;5961;42.640;23.380;2022-11-15T11:22:38;63.70;;;34.27;;
11807;SDS011;5961;42.640;23.380;2022-11-15T11:25:18;62.17;;;34.20;;
11807;SDS011;5961;42.640;23.380;2022-11-15T11:27:53;60.27;;;34.80;;
11807;SDS011;5961;42.640;23.380;2022-11-15T11:30:32;60.37;;;33.77;;
11807;SDS011;5961;42.640;23.380;2022-11-15T11:33:10;69.03;;;35.30;;
11807;SDS011;5961;42.640;23.380;2022-11-15T11:35:50;59.80;;;33.40;;
11807;SDS011;5961;42.640;23.380;2022-11-15T11:38:39;61.63;;;34.60;;
11807;SDS011;5961;42.640;23.380;2022-11-15T11:41:24;59.07;;;34.20;;
11807;SDS011;5961;42.640;23.380;2022-11-15T11:44:07;64.13;;;34.27;;
11807;SDS011;5961;42.640;23.380;2022-11-15T11:46:49;61.13;;;34.40;;
11807;SDS011;5961;42.640;23.380;2022-11-15T11:49:28;57.50;;;32.93;;
11807;SDS011;5961;42.640;23.380;2022-11-15T11:52:00;56.80;;;32.50;;
11807;SDS011;5961;42.640;23.380;2022-11-15T11:54:34;57.80;;;32.30;;
11807;SDS011;5961;42.640;23.380;2022-11-15T11:57:11;51.57;;;30.30;;
11807;SDS011;5961;42.640;23.380;2022-11-15T11:59:43;52.40;;;31.43;;
11807;SDS011;5961;42.640;23.380;2022-11-15T12:02:29;54.77;;;30.87;;
11807;SDS011;5961;42.640;23.380;2022-11-15T12:05:03;49.37;;;30.37;;
11807;SDS011;5961;42.640;23.380;2022-11-15T12:07:36;50.60;;;29.93;;
11807;SDS011;5961;42.640;23.380;2022-11-15T12:10:11;52.37;;;29.67;;
11807;SDS011;5961;42.640;23.380;2022-11-15T12:12:44;50.13;;;28.50;;
11807;SDS011;5961;42.640;23.380;2022-11-15T12:15:20;54.07;;;31.40;;
11807;SDS011;5961;42.640;23.380;2022-11-15T12:17:51;51.40;;;31.27;;
11807;SDS011;5961;42.640;23.380;2022-11-15T12:20:21;50.10;;;30.10;;
11807;SDS011;5961;42.640;23.380;2022-11-15T12:22:52;49.07;;;30.63;;
11807;SDS011;5961;42.640;23.380;2022-11-15T12:25:22;56.00;;;29.90;;
11807;SDS011;5961;42.640;23.380;2022-11-15T12:27:56;48.37;;;30.80;;
11807;SDS011;5961;42.640;23.380;2022-11-15T12:30:29;51.80;;;31.53;;
11807;SDS011;5961;42.640;23.380;2022-11-15T12:33:27;52.63;;;30.70;;
11807;SDS011;5961;42.640;23.380;2022-11-15T12:35:57;53.97;;;32.40;;
11807;SDS011;5961;42.640;23.380;2022-11-15T12:41:18;53.77;;;30.70;;
11807;SDS011;5961;42.640;23.380;2022-11-15T12:43:46;48.43;;;31.00;;
11807;SDS011;5961;42.640;23.380;2022-11-15T12:46:19;46.93;;;30.57;;
11807;SDS011;5961;42.640;23.380;2022-11-15T12:48:56;49.70;;;32.70;;
11807;SDS011;5961;42.640;23.380;2022-11-15T12:57:47;49.87;;;31.23;;
11807;SDS011;5961;42.640;23.380;2022-11-15T13:03:19;48.30;;;33.43;;
11807;SDS011;5961;42.640;23.380;2022-11-15T13:06:00;53.77;;;33.87;;
11807;SDS011;5961;42.640;23.380;2022-11-15T13:08:41;49.50;;;32.60;;
11807;SDS011;5961;42.640;23.380;2022-11-15T13:17:26;51.80;;;32.37;;
11807;SDS011;5961;42.640;23.380;2022-11-15T13:19:58;58.30;;;32.40;;
11807;SDS011;5961;42.640;23.380;2022-11-15T13:22:44;50.80;;;32.53;;
11807;SDS011;5961;42.640;23.380;2022-11-15T13:25:46;55.97;;;33.07;;
11807;SDS011;5961;42.640;23.380;2022-11-15T13:28:24;49.40;;;33.07;;
11807;SDS011;5961;42.640;23.380;2022-11-15T13:30:58;47.33;;;31.93;;
11807;SDS011;5961;42.640;23.380;2022-11-15T13:33:28;46.63;;;31.63;;
11807;SDS011;5961;42.640;23.380;2022-11-15T13:35:58;52.27;;;32.53;;
11807;SDS011;5961;42.640;23.380;2022-11-15T13:38:29;48.33;;;32.73;;
11807;SDS011;5961;42.640;23.380;2022-11-15T13:40:57;48.97;;;32.50;;
11807;SDS011;5961;42.640;23.380;2022-11-15T13:43:31;48.97;;;32.63;;
11807;SDS011;5961;42.640;23.380;2022-11-15T13:46:09;55.10;;;32.50;;
11807;SDS011;5961;42.640;23.380;2022-11-15T13:48:38;50.53;;;32.70;;
11807;SDS011;5961;42.640;23.380;2022-11-15T13:51:06;53.50;;;33.83;;
11807;SDS011;5961;42.640;23.380;2022-11-15T13:53:41;50.40;;;32.87;;
11807;SDS011;5961;42.640;23.380;2022-11-15T13:56:12;45.80;;;32.23;;
11807;SDS011;5961;42.640;23.380;2022-11-15T13:58:41;49.63;;;32.70;;
11807;SDS011;5961;42.640;23.380;2022-11-15T14:01:08;51.23;;;33.80;;
11807;SDS011;5961;42.640;23.380;2022-11-15T14:03:42;49.77;;;32.60;;
11807;SDS011;5961;42.640;23.380;2022-11-15T14:06:17;51.63;;;33.57;;
11807;SDS011;5961;42.640;23.380;2022-11-15T14:08:59;53.77;;;33.90;;
11807;SDS011;5961;42.640;23.380;2022-11-15T14:11:31;52.47;;;33.13;;
11807;SDS011;5961;42.640;23.380;2022-11-15T14:16:46;54.83;;;32.80;;
11807;SDS011;5961;42.640;23.380;2022-11-15T14:22:19;56.57;;;35.90;;
11807;SDS011;5961;42.640;23.380;2022-11-15T14:25:03;58.60;;;34.03;;
11807;SDS011;5961;42.640;23.380;2022-11-15T14:27:41;55.50;;;33.50;;
11807;SDS011;5961;42.640;23.380;2022-11-15T14:30:13;55.67;;;33.83;;
11807;SDS011;5961;42.640;23.380;2022-11-15T14:32:43;55.90;;;36.57;;
11807;SDS011;5961;42.640;23.380;2022-11-15T14:35:12;57.70;;;35.43;;
11807;SDS011;5961;42.640;23.380;2022-11-15T14:37:41;61.00;;;36.43;;
11807;SDS011;5961;42.640;23.380;2022-11-15T14:40:12;59.37;;;35.53;;
11807;SDS011;5961;42.640;23.380;2022-11-15T14:42:40;59.27;;;36.43;;
11807;SDS011;5961;42.640;23.380;2022-11-15T14:45:09;60.10;;;35.77;;
11807;SDS011;5961;42.640;23.380;2022-11-15T14:47:39;61.33;;;34.97;;
11807;SDS011;5961;42.640;23.380;2022-11-15T14:50:06;52.93;;;33.57;;
11807;SDS011;5961;42.640;23.380;2022-11-15T14:52:37;56.17;;;35.10;;
11807;SDS011;5961;42.640;23.380;2022-11-15T14:55:09;61.00;;;35.00;;
11807;SDS011;5961;42.640;23.380;2022-11-15T14:57:41;59.80;;;35.73;;
11807;SDS011;5961;42.640;23.380;2022-11-15T15:00:08;58.17;;;35.10;;
11807;SDS011;5961;42.640;23.380;2022-11-15T15:02:36;64.63;;;37.23;;
11807;SDS011;5961;42.640;23.380;2022-11-15T15:05:08;63.97;;;37.40;;
11807;SDS011;5961;42.640;23.380;2022-11-15T15:07:39;64.10;;;39.43;;
11807;SDS011;5961;42.640;23.380;2022-11-15T15:10:06;67.50;;;40.17;;
11807;SDS011;5961;42.640;23.380;2022-11-15T15:12:35;68.23;;;40.93;;